createdAt,value
2017-02-19T00:00:15.070Z,1021.64
2017-02-19T00:01:15.771Z,1021.62
2017-02-19T00:02:16.481Z,1021.67
2017-02-19T00:03:17.203Z,1021.6
2017-02-19T00:04:17.903Z,1021.65
2017-02-19T00:05:18.654Z,1021.63
2017-02-19T00:06:19.347Z,1021.66
2017-02-19T00:07:20.042Z,1021.63
2017-02-19T00:08:20.734Z,1021.6
2017-02-19T00:09:21.441Z,1021.59
2017-02-19T00:10:22.125Z,1021.65
2017-02-19T00:11:22.824Z,1021.62
2017-02-19T00:12:23.517Z,1021.67
2017-02-19T00:13:24.230Z,1021.69
2017-02-19T00:14:24.916Z,1021.67
2017-02-19T00:15:25.649Z,1021.67
2017-02-19T00:16:26.405Z,1021.66
2017-02-19T00:17:27.094Z,1021.59
2017-02-19T00:18:27.812Z,1021.63
2017-02-19T00:19:28.506Z,1021.62
2017-02-19T00:20:29.216Z,1021.56
2017-02-19T00:21:29.931Z,1021.59
2017-02-19T00:22:30.622Z,1021.57
2017-02-19T00:23:31.313Z,1021.51
2017-02-19T00:24:32.021Z,1021.57
2017-02-19T00:25:32.737Z,1021.56
2017-02-19T00:26:33.466Z,1021.52
2017-02-19T00:27:34.164Z,1021.5
2017-02-19T00:28:34.861Z,1021.53
2017-02-19T00:29:35.670Z,1021.55
2017-02-19T00:30:36.370Z,1021.51
2017-02-19T00:31:37.254Z,1021.52
2017-02-19T00:32:38.025Z,1021.5
2017-02-19T00:33:38.675Z,1021.49
2017-02-19T00:34:39.343Z,1021.49
2017-02-19T00:35:40.068Z,1021.46
2017-02-19T00:36:40.768Z,1021.43
2017-02-19T00:37:41.503Z,1021.45
2017-02-19T00:38:42.214Z,1021.45
2017-02-19T00:39:42.905Z,1021.47
2017-02-19T00:40:43.623Z,1021.42
2017-02-19T00:41:44.302Z,1021.42
2017-02-19T00:42:45.012Z,1021.43
2017-02-19T00:43:45.711Z,1021.41
2017-02-19T00:44:46.392Z,1021.41
2017-02-19T00:45:47.095Z,1021.43
2017-02-19T00:46:47.755Z,1021.38
2017-02-19T00:47:48.448Z,1021.43
2017-02-19T00:48:49.127Z,1021.39
2017-02-19T00:49:49.830Z,1021.4
2017-02-19T00:50:50.517Z,1021.44
2017-02-19T00:51:51.192Z,1021.33
2017-02-19T00:52:51.886Z,1021.31
2017-02-19T00:53:52.660Z,1021.36
2017-02-19T00:54:53.316Z,1021.32
2017-02-19T00:55:54.028Z,1021.34
2017-02-19T00:56:54.707Z,1021.33
2017-02-19T00:57:55.384Z,1021.33
2017-02-19T00:58:56.099Z,1021.33
2017-02-19T00:59:56.807Z,1021.3
2017-02-19T01:00:57.508Z,1021.31
2017-02-19T01:01:58.207Z,1021.28
2017-02-19T01:02:58.905Z,1021.25
2017-02-19T01:03:59.620Z,1021.3
2017-02-19T01:05:00.331Z,1021.3
2017-02-19T01:06:01.011Z,1021.22
2017-02-19T01:07:01.716Z,1021.24
2017-02-19T01:08:02.407Z,1021.18
2017-02-19T01:09:03.105Z,1021.28
2017-02-19T01:10:03.823Z,1021.22
2017-02-19T01:11:04.518Z,1021.22
2017-02-19T01:12:05.272Z,1021.17
2017-02-19T01:13:05.966Z,1021.17
2017-02-19T01:14:06.646Z,1021.14
2017-02-19T01:15:07.322Z,1021.12
2017-02-19T01:16:08.001Z,1021.15
2017-02-19T01:17:08.634Z,1021.16
2017-02-19T01:18:09.307Z,1021.15
2017-02-19T01:19:10.004Z,1021.15
2017-02-19T01:20:10.701Z,1021.08
2017-02-19T01:21:11.408Z,1021.12
2017-02-19T01:22:12.120Z,1021.14
2017-02-19T01:23:12.798Z,1021.13
2017-02-19T01:24:13.507Z,1021.12
2017-02-19T01:25:14.213Z,1021.08
2017-02-19T01:26:14.926Z,1021.06
2017-02-19T01:27:15.642Z,1021.05
2017-02-19T01:28:16.338Z,1021.01
2017-02-19T01:29:17.040Z,1021.04
2017-02-19T01:30:17.745Z,1021.01
2017-02-19T01:31:18.483Z,1020.92
2017-02-19T01:32:19.174Z,1020.95
2017-02-19T01:33:19.884Z,1020.92
2017-02-19T01:34:20.592Z,1020.91
2017-02-19T01:35:21.274Z,1020.9
2017-02-19T01:36:21.990Z,1020.88
2017-02-19T01:37:22.671Z,1020.88
2017-02-19T01:38:23.387Z,1020.88
2017-02-19T01:39:24.085Z,1020.83
2017-02-19T01:40:24.778Z,1020.82
2017-02-19T01:41:25.466Z,1020.81
2017-02-19T01:42:26.180Z,1020.75
2017-02-19T01:43:26.865Z,1020.82
2017-02-19T01:44:27.551Z,1020.77
2017-02-19T01:45:28.294Z,1020.72
2017-02-19T01:46:28.999Z,1020.78
2017-02-19T01:47:29.671Z,1020.73
2017-02-19T01:48:30.372Z,1020.72
2017-02-19T01:49:31.042Z,1020.56
2017-02-19T01:50:31.734Z,1020.67
2017-02-19T01:51:32.421Z,1020.56
2017-02-19T01:52:33.106Z,1020.62
2017-02-19T01:53:33.804Z,1020.55
2017-02-19T01:54:34.490Z,1020.54
2017-02-19T01:55:35.161Z,1020.56
2017-02-19T01:56:35.834Z,1020.52
2017-02-19T01:57:36.502Z,1020.49
2017-02-19T01:58:37.216Z,1020.53
2017-02-19T01:59:37.894Z,1020.5
2017-02-19T02:00:38.562Z,1020.46
2017-02-19T02:01:39.239Z,1020.44
2017-02-19T02:02:39.921Z,1020.39
2017-02-19T02:03:40.600Z,1020.41
2017-02-19T02:04:41.298Z,1020.4
2017-02-19T02:05:41.977Z,1020.36
2017-02-19T02:06:42.695Z,1020.39
2017-02-19T02:07:43.389Z,1020.42
2017-02-19T02:08:44.095Z,1020.36
2017-02-19T02:09:44.811Z,1020.29
2017-02-19T02:10:45.501Z,1020.27
2017-02-19T02:11:46.174Z,1020.3
2017-02-19T02:12:46.902Z,1020.2
2017-02-19T02:13:47.612Z,1020.28
2017-02-19T02:14:48.306Z,1020.2
2017-02-19T02:15:48.998Z,1020.18
2017-02-19T02:16:49.691Z,1020.16
2017-02-19T02:17:50.360Z,1020.12
2017-02-19T02:18:51.030Z,1020.08
2017-02-19T02:19:51.696Z,1020.17
2017-02-19T02:20:52.378Z,1020.09
2017-02-19T02:21:53.106Z,1020.07
2017-02-19T02:22:53.765Z,1020.07
2017-02-19T02:23:54.441Z,1020.05
2017-02-19T02:24:55.117Z,1020.05
2017-02-19T02:25:55.784Z,1019.99
2017-02-19T02:26:56.503Z,1020
2017-02-19T02:27:57.202Z,1019.95
2017-02-19T02:28:57.890Z,1019.94
2017-02-19T02:29:58.613Z,1019.92
2017-02-19T02:30:59.303Z,1019.88
2017-02-19T02:31:59.968Z,1019.79
2017-02-19T02:33:00.672Z,1019.85
2017-02-19T02:34:01.383Z,1019.77
2017-02-19T02:35:02.073Z,1019.79
2017-02-19T02:36:02.774Z,1019.73
2017-02-19T02:37:03.471Z,1019.75
2017-02-19T02:38:04.150Z,1019.76
2017-02-19T02:39:04.855Z,1019.67
2017-02-19T02:40:05.547Z,1019.75
2017-02-19T02:41:06.242Z,1019.7
2017-02-19T02:42:06.949Z,1019.72
2017-02-19T02:43:07.661Z,1019.68
2017-02-19T02:44:08.354Z,1019.71
2017-02-19T02:45:09.073Z,1019.64
2017-02-19T02:46:09.773Z,1019.63
2017-02-19T02:47:10.487Z,1019.58
2017-02-19T02:48:11.196Z,1019.55
2017-02-19T02:49:11.873Z,1019.57
2017-02-19T02:50:12.571Z,1019.56
2017-02-19T02:51:13.262Z,1019.5
2017-02-19T02:52:13.969Z,1019.48
2017-02-19T02:53:14.662Z,1019.5
2017-02-19T02:54:15.346Z,1019.48
2017-02-19T02:55:16.052Z,1019.42
2017-02-19T02:56:16.774Z,1019.47
2017-02-19T02:57:17.460Z,1019.4
2017-02-19T02:58:18.161Z,1019.43
2017-02-19T02:59:18.863Z,1019.42
2017-02-19T03:00:19.599Z,1019.43
2017-02-19T03:01:20.287Z,1019.37
2017-02-19T03:02:20.996Z,1019.38
2017-02-19T03:03:21.668Z,1019.36
2017-02-19T03:04:22.372Z,1019.41
2017-02-19T03:05:23.100Z,1019.4
2017-02-19T03:06:23.801Z,1019.41
2017-02-19T03:07:24.532Z,1019.39
2017-02-19T03:08:25.221Z,1019.39
2017-02-19T03:09:25.927Z,1019.31
2017-02-19T03:10:26.629Z,1019.32
2017-02-19T03:11:27.302Z,1019.27
2017-02-19T03:12:27.993Z,1019.3
2017-02-19T03:13:28.686Z,1019.25
2017-02-19T03:14:29.400Z,1019.31
2017-02-19T03:15:30.101Z,1019.32
2017-02-19T03:16:30.785Z,1019.35
2017-02-19T03:17:31.474Z,1019.28
2017-02-19T03:18:32.195Z,1019.32
2017-02-19T03:19:32.900Z,1019.33
2017-02-19T03:20:33.597Z,1019.3
2017-02-19T03:21:34.289Z,1019.24
2017-02-19T03:22:34.981Z,1019.2
2017-02-19T03:23:35.687Z,1019.19
2017-02-19T03:24:36.379Z,1019.17
2017-02-19T03:25:37.073Z,1019.2
2017-02-19T03:26:37.772Z,1019.15
2017-02-19T03:27:38.495Z,1019.12
2017-02-19T03:28:39.206Z,1019.16
2017-02-19T03:29:39.909Z,1019.11
2017-02-19T03:30:40.598Z,1019.16
2017-02-19T03:31:41.305Z,1019.17
2017-02-19T03:32:42.017Z,1019.17
2017-02-19T03:33:42.725Z,1019.15
2017-02-19T03:34:43.432Z,1019.16
2017-02-19T03:35:44.142Z,1019.19
2017-02-19T03:36:44.835Z,1019.18
2017-02-19T03:37:45.534Z,1019.21
2017-02-19T03:38:46.248Z,1019.18
2017-02-19T03:39:46.928Z,1019.25
2017-02-19T03:40:47.612Z,1019.21
2017-02-19T03:41:48.303Z,1019.22
2017-02-19T03:42:48.967Z,1019.19
2017-02-19T03:43:49.680Z,1019.26
2017-02-19T03:44:50.373Z,1019.2
2017-02-19T03:45:51.064Z,1019.2
2017-02-19T03:46:51.764Z,1019.22
2017-02-19T03:47:52.446Z,1019.21
2017-02-19T03:48:53.145Z,1019.25
2017-02-19T03:49:53.844Z,1019.21
2017-02-19T03:50:54.524Z,1019.2
2017-02-19T03:51:55.233Z,1019.24
2017-02-19T03:52:55.916Z,1019.21
2017-02-19T03:53:56.620Z,1019.22
2017-02-19T03:54:57.318Z,1019.18
2017-02-19T03:55:58.006Z,1019.21
2017-02-19T03:56:58.705Z,1019.16
2017-02-19T03:57:59.398Z,1019.17
2017-02-19T03:59:00.093Z,1019.19
2017-02-19T04:00:00.775Z,1019.11
2017-02-19T04:01:01.486Z,1019.22
2017-02-19T04:02:02.192Z,1019.15
2017-02-19T04:03:02.882Z,1019.19
2017-02-19T04:04:03.568Z,1019.14
2017-02-19T04:05:04.256Z,1019.15
2017-02-19T04:06:04.964Z,1019.12
2017-02-19T04:07:05.671Z,1019.11
2017-02-19T04:08:06.364Z,1019.07
2017-02-19T04:09:07.065Z,1019.11
2017-02-19T04:10:07.762Z,1019.15
2017-02-19T04:11:08.470Z,1019.02
2017-02-19T04:12:09.167Z,1019.1
2017-02-19T04:13:09.878Z,1019.13
2017-02-19T04:14:10.566Z,1019.07
2017-02-19T04:15:11.265Z,1019.03
2017-02-19T04:16:11.999Z,1019
2017-02-19T04:17:12.704Z,1019.02
2017-02-19T04:18:13.429Z,1018.99
2017-02-19T04:19:14.128Z,1019.02
2017-02-19T04:20:14.809Z,1019.08
2017-02-19T04:21:15.548Z,1019
2017-02-19T04:22:16.305Z,1019
2017-02-19T04:23:17.012Z,1019.03
2017-02-19T04:24:17.821Z,1019.02
2017-02-19T04:25:18.495Z,1018.93
2017-02-19T04:26:19.194Z,1018.99
2017-02-19T04:27:19.910Z,1018.93
2017-02-19T04:28:20.628Z,1018.95
2017-02-19T04:29:21.330Z,1018.89
2017-02-19T04:30:22.034Z,1018.85
2017-02-19T04:31:22.732Z,1018.85
2017-02-19T04:32:23.412Z,1018.83
2017-02-19T04:33:24.084Z,1018.8
2017-02-19T04:34:24.806Z,1018.83
2017-02-19T04:35:25.513Z,1018.81
2017-02-19T04:36:26.247Z,1018.75
2017-02-19T04:37:26.954Z,1018.8
2017-02-19T04:38:27.719Z,1018.77
2017-02-19T04:39:28.466Z,1018.74
2017-02-19T04:40:29.152Z,1018.72
2017-02-19T04:41:29.843Z,1018.73
2017-02-19T04:42:30.527Z,1018.68
2017-02-19T04:43:31.237Z,1018.64
2017-02-19T04:44:31.950Z,1018.64
2017-02-19T04:45:32.684Z,1018.67
2017-02-19T04:46:33.409Z,1018.63
2017-02-19T04:47:34.144Z,1018.66
2017-02-19T04:48:34.860Z,1018.55
2017-02-19T04:49:35.528Z,1018.57
2017-02-19T04:50:36.249Z,1018.57
2017-02-19T04:51:36.930Z,1018.55
2017-02-19T04:52:37.646Z,1018.54
2017-02-19T04:53:38.353Z,1018.53
2017-02-19T04:54:39.050Z,1018.53
2017-02-19T04:55:39.759Z,1018.5
2017-02-19T04:56:40.504Z,1018.48
2017-02-19T04:57:41.222Z,1018.42
2017-02-19T04:58:41.929Z,1018.48
2017-02-19T04:59:42.648Z,1018.39
2017-02-19T05:00:43.340Z,1018.43
2017-02-19T05:01:44.034Z,1018.38
2017-02-19T05:02:44.714Z,1018.39
2017-02-19T05:03:45.411Z,1018.35
2017-02-19T05:04:46.104Z,1018.34
2017-02-19T05:05:46.827Z,1018.35
2017-02-19T05:06:47.507Z,1018.28
2017-02-19T05:07:48.248Z,1018.31
2017-02-19T05:08:48.955Z,1018.24
2017-02-19T05:09:49.659Z,1018.29
2017-02-19T05:10:50.354Z,1018.25
2017-02-19T05:11:51.047Z,1018.22
2017-02-19T05:12:51.744Z,1018.23
2017-02-19T05:13:52.465Z,1018.24
2017-02-19T05:14:53.174Z,1018.2
2017-02-19T05:15:53.864Z,1018.18
2017-02-19T05:16:54.547Z,1018.14
2017-02-19T05:17:55.243Z,1018.09
2017-02-19T05:18:55.939Z,1018.08
2017-02-19T05:19:56.656Z,1018.07
2017-02-19T05:20:57.360Z,1018.04
2017-02-19T05:21:58.106Z,1018.09
2017-02-19T05:22:58.813Z,1017.98
2017-02-19T05:23:59.563Z,1017.97
2017-02-19T05:25:00.217Z,1018
2017-02-19T05:26:00.904Z,1018.02
2017-02-19T05:27:01.587Z,1018
2017-02-19T05:28:02.274Z,1018
2017-02-19T05:29:02.953Z,1017.9
2017-02-19T05:30:03.647Z,1018
2017-02-19T05:31:04.366Z,1017.95
2017-02-19T05:32:05.051Z,1017.94
2017-02-19T05:33:05.746Z,1017.89
2017-02-19T05:34:06.478Z,1017.86
2017-02-19T05:35:07.199Z,1017.87
2017-02-19T05:36:07.902Z,1017.83
2017-02-19T05:37:08.572Z,1017.81
2017-02-19T05:38:09.290Z,1017.87
2017-02-19T05:39:09.989Z,1017.85
2017-02-19T05:40:10.692Z,1017.78
2017-02-19T05:41:11.403Z,1017.79
2017-02-19T05:42:12.093Z,1017.74
2017-02-19T05:43:12.791Z,1017.74
2017-02-19T05:44:13.463Z,1017.71
2017-02-19T05:45:14.148Z,1017.65
2017-02-19T05:46:14.845Z,1017.72
2017-02-19T05:47:15.528Z,1017.7
2017-02-19T05:48:16.217Z,1017.73
2017-02-19T05:49:16.925Z,1017.67
2017-02-19T05:50:17.608Z,1017.63
2017-02-19T05:51:18.283Z,1017.62
2017-02-19T05:52:18.983Z,1017.68
2017-02-19T05:53:19.715Z,1017.66
2017-02-19T05:54:20.415Z,1017.61
2017-02-19T05:55:21.109Z,1017.56
2017-02-19T05:56:21.833Z,1017.53
2017-02-19T05:57:22.552Z,1017.51
2017-02-19T05:58:23.258Z,1017.5
2017-02-19T05:59:23.930Z,1017.5
2017-02-19T06:00:24.621Z,1017.47
2017-02-19T06:01:25.315Z,1017.56
2017-02-19T06:02:25.996Z,1017.57
2017-02-19T06:03:26.711Z,1017.45
2017-02-19T06:04:27.426Z,1017.5
2017-02-19T06:05:28.102Z,1017.48
2017-02-19T06:06:28.776Z,1017.49
2017-02-19T06:07:29.453Z,1017.48
2017-02-19T06:08:30.168Z,1017.5
2017-02-19T06:09:30.888Z,1017.49
2017-02-19T06:10:31.577Z,1017.45
2017-02-19T06:11:32.270Z,1017.42
2017-02-19T06:12:32.955Z,1017.38
2017-02-19T06:13:33.635Z,1017.36
2017-02-19T06:14:34.319Z,1017.33
2017-02-19T06:15:35.034Z,1017.29
2017-02-19T06:16:35.699Z,1017.32
2017-02-19T06:17:36.376Z,1017.36
2017-02-19T06:18:37.046Z,1017.31
2017-02-19T06:19:37.724Z,1017.3
2017-02-19T06:20:38.398Z,1017.27
2017-02-19T06:21:39.113Z,1017.32
2017-02-19T06:22:39.824Z,1017.33
2017-02-19T06:23:40.515Z,1017.29
2017-02-19T06:24:41.223Z,1017.28
2017-02-19T06:25:41.925Z,1017.24
2017-02-19T06:26:42.601Z,1017.3
2017-02-19T06:27:43.283Z,1017.28
2017-02-19T06:28:43.990Z,1017.31
2017-02-19T06:29:44.688Z,1017.2
2017-02-19T06:30:45.368Z,1017.29
2017-02-19T06:31:46.062Z,1017.31
2017-02-19T06:32:46.747Z,1017.33
2017-02-19T06:33:47.433Z,1017.31
2017-02-19T06:34:48.112Z,1017.36
2017-02-19T06:35:48.779Z,1017.24
2017-02-19T06:36:49.467Z,1017.3
2017-02-19T06:37:50.155Z,1017.31
2017-02-19T06:38:50.847Z,1017.31
2017-02-19T06:39:51.539Z,1017.34
2017-02-19T06:40:52.231Z,1017.3
2017-02-19T06:41:52.948Z,1017.26
2017-02-19T06:42:53.633Z,1017.23
2017-02-19T06:43:54.310Z,1017.24
2017-02-19T06:44:54.987Z,1017.27
2017-02-19T06:45:55.659Z,1017.22
2017-02-19T06:46:56.379Z,1017.25
2017-02-19T06:47:57.056Z,1017.22
2017-02-19T06:48:57.773Z,1017.21
2017-02-19T06:49:58.489Z,1017.22
2017-02-19T06:50:59.191Z,1017.15
2017-02-19T06:51:59.873Z,1017.15
2017-02-19T06:53:00.583Z,1017.15
2017-02-19T06:54:01.281Z,1017.21
2017-02-19T06:55:01.977Z,1017.17
2017-02-19T06:56:02.690Z,1017.22
2017-02-19T06:57:03.394Z,1017.23
2017-02-19T06:58:04.081Z,1017.22
2017-02-19T06:59:04.764Z,1017.18
2017-02-19T07:00:05.467Z,1017.16
2017-02-19T07:01:06.143Z,1017.16
2017-02-19T07:02:06.841Z,1017.11
2017-02-19T07:03:07.552Z,1017.16
2017-02-19T07:04:08.251Z,1017.12
2017-02-19T07:05:08.949Z,1017.13
2017-02-19T07:06:09.672Z,1017.19
2017-02-19T07:07:10.374Z,1017.17
2017-02-19T07:08:11.081Z,1017.18
2017-02-19T07:09:11.782Z,1017.17
2017-02-19T07:10:12.450Z,1017.13
2017-02-19T07:11:13.149Z,1017.13
2017-02-19T07:12:13.859Z,1017.13
2017-02-19T07:13:14.557Z,1017.19
2017-02-19T07:14:15.237Z,1017.14
2017-02-19T07:15:15.928Z,1017.25
2017-02-19T07:16:16.626Z,1017.26
2017-02-19T07:17:17.335Z,1017.22
2017-02-19T07:18:18.028Z,1017.26
2017-02-19T07:19:18.717Z,1017.22
2017-02-19T07:20:19.435Z,1017.24
2017-02-19T07:21:20.143Z,1017.28
2017-02-19T07:22:20.828Z,1017.2
2017-02-19T07:23:21.544Z,1017.21
2017-02-19T07:24:22.241Z,1017.18
2017-02-19T07:25:22.941Z,1017.19
2017-02-19T07:26:23.632Z,1017.2
2017-02-19T07:27:24.355Z,1017.16
2017-02-19T07:28:25.068Z,1017.19
2017-02-19T07:29:25.765Z,1017.22
2017-02-19T07:30:26.507Z,1017.2
2017-02-19T07:31:27.203Z,1017.25
2017-02-19T07:32:27.918Z,1017.23
2017-02-19T07:33:28.617Z,1017.19
2017-02-19T07:34:29.342Z,1017.15
2017-02-19T07:35:30.046Z,1017.21
2017-02-19T07:36:30.732Z,1017.23
2017-02-19T07:37:31.466Z,1017.24
2017-02-19T07:38:32.152Z,1017.27
2017-02-19T07:39:32.858Z,1017.23
2017-02-19T07:40:33.547Z,1017.22
2017-02-19T07:41:34.224Z,1017.22
2017-02-19T07:42:34.896Z,1017.24
2017-02-19T07:43:35.587Z,1017.26
2017-02-19T07:44:36.261Z,1017.27
2017-02-19T07:45:36.962Z,1017.3
2017-02-19T07:46:37.677Z,1017.29
2017-02-19T07:47:38.368Z,1017.31
2017-02-19T07:48:39.087Z,1017.33
2017-02-19T07:49:39.758Z,1017.36
2017-02-19T07:50:40.429Z,1017.32
2017-02-19T07:51:41.144Z,1017.34
2017-02-19T07:52:41.834Z,1017.29
2017-02-19T07:53:42.532Z,1017.34
2017-02-19T07:54:43.237Z,1017.29
2017-02-19T07:55:43.928Z,1017.37
2017-02-19T07:56:44.603Z,1017.31
2017-02-19T07:57:45.280Z,1017.3
2017-02-19T07:58:45.993Z,1017.37
2017-02-19T07:59:46.699Z,1017.35
2017-02-19T08:00:47.388Z,1017.3
2017-02-19T08:01:48.063Z,1017.34
2017-02-19T08:02:48.741Z,1017.39
2017-02-19T08:03:49.432Z,1017.4
2017-02-19T08:04:50.144Z,1017.37
2017-02-19T08:05:50.829Z,1017.38
2017-02-19T08:06:51.507Z,1017.31
2017-02-19T08:07:52.208Z,1017.3
2017-02-19T08:08:52.904Z,1017.32
2017-02-19T08:09:53.608Z,1017.29
2017-02-19T08:10:54.326Z,1017.21
2017-02-19T08:11:55.032Z,1017.27
2017-02-19T08:12:55.714Z,1017.33
2017-02-19T08:13:56.438Z,1017.32
2017-02-19T08:14:57.116Z,1017.34
2017-02-19T08:15:57.831Z,1017.31
2017-02-19T08:16:58.503Z,1017.26
2017-02-19T08:17:59.195Z,1017.26
2017-02-19T08:18:59.881Z,1017.3
2017-02-19T08:20:00.557Z,1017.27
2017-02-19T08:21:01.251Z,1017.31
2017-02-19T08:22:01.928Z,1017.31
2017-02-19T08:23:02.628Z,1017.3
2017-02-19T08:24:03.309Z,1017.35
2017-02-19T08:25:03.991Z,1017.3
2017-02-19T08:26:04.676Z,1017.37
2017-02-19T08:27:05.364Z,1017.33
2017-02-19T08:28:06.061Z,1017.37
2017-02-19T08:29:06.738Z,1017.35
2017-02-19T08:30:07.428Z,1017.35
2017-02-19T08:31:08.117Z,1017.3
2017-02-19T08:32:08.810Z,1017.29
2017-02-19T08:33:09.522Z,1017.31
2017-02-19T08:34:10.200Z,1017.28
2017-02-19T08:35:10.905Z,1017.29
2017-02-19T08:36:11.591Z,1017.26
2017-02-19T08:37:12.290Z,1017.23
2017-02-19T08:38:12.982Z,1017.24
2017-02-19T08:39:13.661Z,1017.26
2017-02-19T08:40:14.342Z,1017.23
2017-02-19T08:41:15.052Z,1017.19
2017-02-19T08:42:15.731Z,1017.19
2017-02-19T08:43:16.438Z,1017.22
2017-02-19T08:44:17.168Z,1017.26
2017-02-19T08:45:17.852Z,1017.2
2017-02-19T08:46:18.551Z,1017.22
2017-02-19T08:47:19.252Z,1017.22
2017-02-19T08:48:19.981Z,1017.23
2017-02-19T08:49:20.680Z,1017.2
2017-02-19T08:50:21.441Z,1017.16
2017-02-19T08:51:22.152Z,1017.17
2017-02-19T08:52:22.845Z,1017.18
2017-02-19T08:53:23.570Z,1017.15
2017-02-19T08:54:24.289Z,1017.15
2017-02-19T08:55:24.995Z,1017.11
2017-02-19T08:56:25.689Z,1017.16
2017-02-19T08:57:26.411Z,1017.16
2017-02-19T08:58:27.099Z,1017.14
2017-02-19T08:59:27.789Z,1017.11
2017-02-19T09:00:28.506Z,1017.18
2017-02-19T09:01:29.234Z,1017.06
2017-02-19T09:02:29.987Z,1017.09
2017-02-19T09:03:30.716Z,1017.05
2017-02-19T09:04:31.410Z,1017.03
2017-02-19T09:05:32.126Z,1017.04
2017-02-19T09:06:32.852Z,1017.08
2017-02-19T09:07:33.580Z,1017.05
2017-02-19T09:08:34.307Z,1017.09
2017-02-19T09:09:35.032Z,1017.07
2017-02-19T09:10:35.745Z,1017.1
2017-02-19T09:11:36.456Z,1017.07
2017-02-19T09:12:37.163Z,1017.01
2017-02-19T09:13:37.870Z,1017.05
2017-02-19T09:14:38.573Z,1017.04
2017-02-19T09:15:39.283Z,1017
2017-02-19T09:16:39.968Z,1017.05
2017-02-19T09:17:40.667Z,1017
2017-02-19T09:18:41.401Z,1017.04
2017-02-19T09:19:42.120Z,1017.05
2017-02-19T09:20:42.822Z,1017.05
2017-02-19T09:21:43.520Z,1017.02
2017-02-19T09:22:44.222Z,1017.02
2017-02-19T09:23:44.902Z,1017.1
2017-02-19T09:24:45.639Z,1017.03
2017-02-19T09:25:46.349Z,1017.04
2017-02-19T09:26:47.055Z,1017
2017-02-19T09:27:47.751Z,1016.98
2017-02-19T09:28:48.452Z,1017
2017-02-19T09:29:49.202Z,1017
2017-02-19T09:30:49.923Z,1016.97
2017-02-19T09:31:50.646Z,1016.95
2017-02-19T09:32:51.338Z,1016.93
2017-02-19T09:33:52.020Z,1016.98
2017-02-19T09:34:52.717Z,1016.96
2017-02-19T09:35:53.405Z,1017
2017-02-19T09:36:54.088Z,1016.96
2017-02-19T09:37:54.795Z,1016.97
2017-02-19T09:38:55.499Z,1016.99
2017-02-19T09:39:56.198Z,1017.01
2017-02-19T09:40:56.897Z,1017.04
2017-02-19T09:41:57.630Z,1017
2017-02-19T09:42:58.333Z,1016.98
2017-02-19T09:43:59.031Z,1017.01
2017-02-19T09:44:59.707Z,1017.01
2017-02-19T09:46:00.401Z,1016.99
2017-02-19T09:47:01.109Z,1016.98
2017-02-19T09:48:01.813Z,1017.01
2017-02-19T09:49:02.494Z,1016.95
2017-02-19T09:50:03.210Z,1016.93
2017-02-19T09:51:03.904Z,1016.97
2017-02-19T09:52:04.598Z,1016.9
2017-02-19T09:53:05.287Z,1016.92
2017-02-19T09:54:05.988Z,1016.88
2017-02-19T09:55:06.674Z,1016.89
2017-02-19T09:56:07.360Z,1016.91
2017-02-19T09:57:08.058Z,1016.9
2017-02-19T09:58:08.755Z,1016.93
2017-02-19T09:59:09.435Z,1016.93
2017-02-19T10:00:10.129Z,1016.94
2017-02-19T10:01:10.833Z,1016.92
2017-02-19T10:02:11.521Z,1016.82
2017-02-19T10:03:12.228Z,1016.8
2017-02-19T10:04:12.931Z,1016.84
2017-02-19T10:05:13.650Z,1016.83
2017-02-19T10:06:14.360Z,1016.89
2017-02-19T10:07:15.056Z,1016.86
2017-02-19T10:08:15.769Z,1016.83
2017-02-19T10:09:16.478Z,1016.89
2017-02-19T10:10:17.216Z,1016.86
2017-02-19T10:11:17.924Z,1016.89
2017-02-19T10:12:18.598Z,1016.91
2017-02-19T10:13:19.302Z,1016.92
2017-02-19T10:14:19.995Z,1016.92
2017-02-19T10:15:20.691Z,1016.89
2017-02-19T10:16:21.404Z,1016.88
2017-02-19T10:17:22.093Z,1016.89
2017-02-19T10:18:22.787Z,1016.88
2017-02-19T10:19:23.490Z,1016.9
2017-02-19T10:20:24.203Z,1016.92
2017-02-19T10:21:24.902Z,1016.88
2017-02-19T10:22:25.608Z,1016.84
2017-02-19T10:23:26.305Z,1016.84
2017-02-19T10:24:27.009Z,1016.89
2017-02-19T10:25:27.703Z,1016.86
2017-02-19T10:26:28.392Z,1016.9
2017-02-19T10:27:29.109Z,1016.9
2017-02-19T10:28:29.817Z,1016.89
2017-02-19T10:29:30.532Z,1016.93
2017-02-19T10:30:31.241Z,1016.97
2017-02-19T10:31:31.940Z,1016.95
2017-02-19T10:32:32.668Z,1016.95
2017-02-19T10:33:33.368Z,1016.95
2017-02-19T10:34:34.091Z,1017.01
2017-02-19T10:35:34.783Z,1017
2017-02-19T10:36:35.495Z,1016.98
2017-02-19T10:37:36.226Z,1017.06
2017-02-19T10:38:36.939Z,1017.05
2017-02-19T10:39:37.612Z,1017.01
2017-02-19T10:40:38.319Z,1017.06
2017-02-19T10:41:39.019Z,1017.05
2017-02-19T10:42:39.701Z,1017.06
2017-02-19T10:43:40.395Z,1017.05
2017-02-19T10:44:41.083Z,1016.99
2017-02-19T10:45:41.773Z,1016.98
2017-02-19T10:46:42.536Z,1016.99
2017-02-19T10:47:43.258Z,1016.97
2017-02-19T10:48:43.979Z,1016.99
2017-02-19T10:49:44.720Z,1017.07
2017-02-19T10:50:45.424Z,1017.14
2017-02-19T10:51:46.113Z,1017.13
2017-02-19T10:52:46.826Z,1017.12
2017-02-19T10:53:47.520Z,1017.1
2017-02-19T10:54:48.272Z,1017.09
2017-02-19T10:55:48.973Z,1017.09
2017-02-19T10:56:49.685Z,1017.07
2017-02-19T10:57:50.382Z,1017.05
2017-02-19T10:58:51.123Z,1017.09
2017-02-19T10:59:51.819Z,1017.08
2017-02-19T11:00:52.547Z,1017.07
2017-02-19T11:01:53.229Z,1017.04
2017-02-19T11:02:53.934Z,1017.04
2017-02-19T11:03:54.639Z,1017.1
2017-02-19T11:04:55.336Z,1017.12
2017-02-19T11:05:56.014Z,1017.08
2017-02-19T11:06:56.705Z,1017.08
2017-02-19T11:07:57.429Z,1017.09
2017-02-19T11:08:58.128Z,1017.1
2017-02-19T11:09:58.816Z,1017.07
2017-02-19T11:10:59.512Z,1017.07
2017-02-19T11:12:00.219Z,1016.99
2017-02-19T11:13:00.920Z,1016.99
2017-02-19T11:14:01.615Z,1017
2017-02-19T11:15:02.435Z,1017
2017-02-19T11:16:03.153Z,1017
2017-02-19T11:17:03.858Z,1017
2017-02-19T11:18:04.628Z,1016.92
2017-02-19T11:19:05.306Z,1016.89
2017-02-19T11:20:06.095Z,1016.86
2017-02-19T11:21:06.750Z,1016.8
2017-02-19T11:22:07.484Z,1016.84
2017-02-19T11:23:08.216Z,1016.75
2017-02-19T11:24:08.910Z,1016.77
2017-02-19T11:25:09.649Z,1016.74
2017-02-19T11:26:10.370Z,1016.77
2017-02-19T11:27:11.098Z,1016.76
2017-02-19T11:28:11.803Z,1016.72
2017-02-19T11:29:12.482Z,1016.72
2017-02-19T11:30:13.199Z,1016.73
2017-02-19T11:31:13.966Z,1016.74
2017-02-19T11:32:14.720Z,1016.73
2017-02-19T11:33:15.418Z,1016.73
2017-02-19T11:34:16.143Z,1016.78
2017-02-19T11:35:16.912Z,1016.75
2017-02-19T11:36:17.630Z,1016.74
2017-02-19T11:37:18.446Z,1016.75
2017-02-19T11:38:19.152Z,1016.73
2017-02-19T11:39:19.872Z,1016.73
2017-02-19T11:40:20.642Z,1016.71
2017-02-19T11:41:21.354Z,1016.72
2017-02-19T11:42:22.092Z,1016.67
2017-02-19T11:43:22.813Z,1016.62
2017-02-19T11:44:23.545Z,1016.59
2017-02-19T11:45:24.274Z,1016.58
2017-02-19T11:46:24.978Z,1016.59
2017-02-19T11:47:25.660Z,1016.6
2017-02-19T11:48:26.371Z,1016.62
2017-02-19T11:49:27.093Z,1016.61
2017-02-19T11:50:27.788Z,1016.65
2017-02-19T11:51:28.502Z,1016.61
2017-02-19T11:52:29.215Z,1016.59
2017-02-19T11:53:29.902Z,1016.59
2017-02-19T11:54:30.609Z,1016.61
2017-02-19T11:55:31.386Z,1016.59
2017-02-19T11:56:32.089Z,1016.55
2017-02-19T11:57:32.798Z,1016.55
2017-02-19T11:58:33.519Z,1016.55
2017-02-19T11:59:34.214Z,1016.5
2017-02-19T12:00:34.946Z,1016.47
2017-02-19T12:01:35.673Z,1016.43
2017-02-19T12:02:36.419Z,1016.38
2017-02-19T12:03:37.133Z,1016.4
2017-02-19T12:04:37.826Z,1016.35
2017-02-19T12:05:38.568Z,1016.3
2017-02-19T12:06:39.281Z,1016.32
2017-02-19T12:07:40.005Z,1016.39
2017-02-19T12:08:40.706Z,1016.4
2017-02-19T12:09:41.433Z,1016.34
2017-02-19T12:10:42.128Z,1016.31
2017-02-19T12:11:42.833Z,1016.28
2017-02-19T12:12:43.546Z,1016.32
2017-02-19T12:13:44.246Z,1016.3
2017-02-19T12:14:44.916Z,1016.28
2017-02-19T12:15:45.590Z,1016.31
2017-02-19T12:16:46.283Z,1016.29
2017-02-19T12:17:46.980Z,1016.26